Time;durP1;ratioP1;P1;durP2;ratioP2;P2;SDS_P1;SDS_P2;PMS_P1;PMS_P2;Temp;Humidity;BMP_temperature;BMP_pressure;BME280_temperature;BME280_humidity;BME280_pressure;Samples;Min_cycle;Max_cycle;Signal;HPM_P1;HPM_P2
2022/06/06 00:01:35;;;;;;;10.57;5.07;;;16.10;99.90;;;;;;5058453;28;20456;-71
2022/06/06 00:04:00;;;;;;;6.50;4.30;;;16.10;99.90;;;;;;5057946;28;20052;-71
2022/06/06 00:06:26;;;;;;;7.68;5.18;;;16.10;99.90;;;;;;5058084;28;20123;-71
2022/06/06 00:08:51;;;;;;;9.52;5.18;;;16.10;99.90;;;;;;5057911;28;20504;-71
2022/06/06 00:11:17;;;;;;;7.55;4.68;;;16.10;99.90;;;;;;5058341;28;20123;-71
2022/06/06 00:13:45;;;;;;;9.23;5.68;;;16.10;99.90;;;;;;5073734;28;20062;-71
2022/06/06 00:16:11;;;;;;;7.72;5.13;;;16.10;99.90;;;;;;5096111;28;20348;-71
2022/06/06 00:18:37;;;;;;;8.32;5.35;;;16.10;99.90;;;;;;5077422;28;20040;-72
2022/06/06 00:21:05;;;;;;;8.13;4.95;;;16.10;99.90;;;;;;5077593;28;20101;-72
2022/06/06 00:23:30;;;;;;;7.35;4.47;;;16.10;99.90;;;;;;5077790;28;20397;-71
2022/06/06 00:25:57;;;;;;;8.00;4.32;;;16.00;99.90;;;;;;5095903;28;20040;-72
2022/06/06 00:28:23;;;;;;;7.03;4.70;;;16.00;99.90;;;;;;5083521;28;20117;-72
2022/06/06 00:30:54;;;;;;;7.97;5.05;;;16.00;99.90;;;;;;5075133;28;20123;-71
2022/06/06 00:36:04;;;;;;;7.75;5.25;;;16.00;99.90;;;;;;5057380;28;20052;-71
2022/06/06 00:38:30;;;;;;;7.55;4.78;;;15.90;99.90;;;;;;5058120;28;20041;-71
2022/06/06 00:40:55;;;;;;;8.25;3.80;;;15.90;99.90;;;;;;5057511;28;20047;-71
2022/06/06 00:43:21;;;;;;;8.25;4.00;;;15.90;99.90;;;;;;5075029;28;20097;-72
2022/06/06 00:45:50;;;;;;;6.88;3.80;;;15.80;99.90;;;;;;5071206;28;20294;-71
2022/06/06 00:48:30;;;;;;;6.95;4.07;;;15.80;99.90;;;;;;5057353;28;20055;-71
2022/06/06 00:51:16;;;;;;;6.65;3.83;;;15.80;99.90;;;;;;5074727;28;20488;-72
2022/06/06 00:53:46;;;;;;;8.45;4.75;;;15.80;99.90;;;;;;5074522;28;20087;-71
2022/06/06 00:56:18;;;;;;;7.28;4.32;;;15.80;99.90;;;;;;5075171;28;20132;-71
2022/06/06 00:58:47;;;;;;;5.50;3.17;;;15.80;99.90;;;;;;5067359;28;20051;-72
2022/06/06 01:01:12;;;;;;;6.55;3.88;;;15.70;99.90;;;;;;5056907;28;20048;-71
2022/06/06 01:03:40;;;;;;;7.05;4.25;;;15.70;99.90;;;;;;5057219;28;20044;-72
2022/06/06 01:06:10;;;;;;;6.53;3.97;;;15.70;99.90;;;;;;5057037;28;20052;-71
2022/06/06 01:08:37;;;;;;;6.57;4.03;;;15.70;99.90;;;;;;5075036;28;20051;-71
2022/06/06 01:11:03;;;;;;;6.07;3.60;;;15.70;99.90;;;;;;5057454;28;20076;-72
2022/06/06 01:13:29;;;;;;;6.10;3.92;;;15.70;99.90;;;;;;5040237;28;20088;-71
2022/06/06 01:16:17;;;;;;;6.55;3.70;;;15.60;99.90;;;;;;5068654;28;20045;-71
2022/06/06 01:18:51;;;;;;;8.95;3.63;;;15.60;99.90;;;;;;5057264;28;20056;-71
2022/06/06 01:21:37;;;;;;;6.40;4.32;;;15.60;99.90;;;;;;5074782;28;20040;-71
2022/06/06 01:24:23;;;;;;;10.00;5.10;;;15.60;99.90;;;;;;5057118;28;20040;-72
2022/06/06 01:27:08;;;;;;;6.22;4.03;;;15.60;99.90;;;;;;5057556;28;20135;-72
2022/06/06 01:29:38;;;;;;;5.90;3.85;;;15.60;99.90;;;;;;5077129;28;20118;-72
2022/06/06 01:32:08;;;;;;;5.95;3.60;;;15.60;99.90;;;;;;5077006;28;20059;-72
2022/06/06 01:34:38;;;;;;;6.47;4.10;;;15.60;99.90;;;;;;5076930;28;20059;-71
2022/06/06 01:37:37;;;;;;;6.85;3.60;;;15.60;99.90;;;;;;5077272;28;20589;-71
2022/06/06 01:40:10;;;;;;;5.78;3.00;;;15.50;99.90;;;;;;5077281;28;20093;-71
2022/06/06 01:42:35;;;;;;;5.78;3.35;;;15.50;99.90;;;;;;5093649;28;20406;-71
2022/06/06 01:45:38;;;;;;;6.47;3.47;;;15.50;99.90;;;;;;5062174;28;20120;-71
2022/06/06 01:48:14;;;;;;;3.97;2.60;;;15.50;99.90;;;;;;5057837;28;20372;-71
2022/06/06 01:50:41;;;;;;;6.70;3.28;;;15.50;99.90;;;;;;5057132;28;20048;-71
2022/06/06 01:53:12;;;;;;;9.43;3.10;;;15.40;99.90;;;;;;5056263;28;20110;-71
2022/06/06 01:55:42;;;;;;;4.82;2.88;;;15.40;99.90;;;;;;5057098;28;20105;-72
2022/06/06 01:58:11;;;;;;;5.07;2.92;;;15.40;99.90;;;;;;5074261;28;20108;-71
2022/06/06 02:00:38;;;;;;;4.60;2.47;;;15.40;99.90;;;;;;5057032;28;20049;-71
2022/06/06 02:03:05;;;;;;;4.85;3.17;;;15.30;99.90;;;;;;5061185;28;20048;-71
2022/06/06 02:05:31;;;;;;;4.80;2.88;;;15.30;99.90;;;;;;5056399;28;20037;-71
2022/06/06 02:07:57;;;;;;;4.57;3.00;;;15.30;99.90;;;;;;5056565;28;20041;-71
2022/06/06 02:10:24;;;;;;;4.05;2.25;;;15.30;99.90;;;;;;5056280;28;20135;-71
2022/06/06 02:12:50;;;;;;;4.28;2.38;;;15.30;99.90;;;;;;5058977;28;20044;-71
2022/06/06 02:15:18;;;;;;;3.42;1.90;;;15.20;99.90;;;;;;5060836;28;20049;-71
2022/06/06 02:17:44;;;;;;;3.25;1.85;;;15.20;99.90;;;;;;5077485;28;20048;-71
2022/06/06 02:20:12;;;;;;;3.85;2.55;;;15.10;99.90;;;;;;5059839;28;20048;-71
2022/06/06 02:22:38;;;;;;;4.85;2.47;;;15.00;99.90;;;;;;5060387;28;20124;-71
2022/06/06 02:25:06;;;;;;;3.47;2.30;;;15.10;99.90;;;;;;5060417;28;20045;-71
2022/06/06 02:27:33;;;;;;;5.40;3.40;;;15.00;99.90;;;;;;5059979;28;20361;-71
2022/06/06 02:29:59;;;;;;;3.90;2.20;;;14.90;99.90;;;;;;5077816;28;20040;-71
2022/06/06 02:32:25;;;;;;;3.58;1.80;;;14.90;99.90;;;;;;5076784;28;20052;-72
2022/06/06 02:34:50;;;;;;;4.30;2.35;;;14.90;99.90;;;;;;5059865;28;20056;-71
2022/06/06 02:37:16;;;;;;;4.95;2.55;;;14.90;99.90;;;;;;5060195;28;20052;-71
2022/06/06 02:39:43;;;;;;;5.35;2.55;;;14.90;99.90;;;;;;5077539;28;20036;-71
2022/06/06 02:42:09;;;;;;;3.25;2.10;;;14.90;99.90;;;;;;5060026;28;20091;-71
2022/06/06 02:44:35;;;;;;;4.90;2.60;;;14.90;99.90;;;;;;5077354;28;20044;-71
2022/06/06 02:47:01;;;;;;;4.10;2.25;;;14.90;99.90;;;;;;5067167;28;20077;-71
2022/06/06 02:49:26;;;;;;;4.00;2.30;;;14.90;99.90;;;;;;5097672;28;20076;-71
2022/06/06 02:51:52;;;;;;;4.18;2.35;;;14.80;99.90;;;;;;5080263;28;20047;-71
2022/06/06 02:54:18;;;;;;;4.47;2.17;;;14.80;99.90;;;;;;5063187;28;20052;-71
2022/06/06 02:56:43;;;;;;;4.03;2.70;;;14.80;99.90;;;;;;5097496;28;20036;-71
2022/06/06 02:59:09;;;;;;;4.35;2.25;;;14.80;99.90;;;;;;5097441;28;20044;-71
2022/06/06 03:01:36;;;;;;;4.78;2.47;;;14.80;99.90;;;;;;5090640;28;20037;-71
2022/06/06 03:04:02;;;;;;;4.88;2.40;;;14.80;99.90;;;;;;5059324;28;20056;-72
2022/06/06 03:06:40;;;;;;;4.82;2.83;;;14.70;99.90;;;;;;5059646;28;20048;-71
2022/06/06 03:09:33;;;;;;;5.35;2.97;;;14.70;99.90;;;;;;5059525;28;20061;-71
2022/06/06 03:12:12;;;;;;;5.75;2.88;;;14.70;99.90;;;;;;5059085;28;20048;-71
2022/06/06 03:14:50;;;;;;;5.82;2.58;;;14.70;99.90;;;;;;5076566;28;20060;-71
2022/06/06 03:20:47;;;;;;;11.27;3.00;;;14.70;99.90;;;;;;5079330;28;20060;-71
2022/06/06 03:23:50;;;;;;;4.60;2.33;;;14.70;99.90;;;;;;5079027;28;20447;-71
2022/06/06 03:26:43;;;;;;;5.18;2.90;;;14.70;99.90;;;;;;5096877;28;20070;-71
2022/06/06 03:29:38;;;;;;;7.32;2.72;;;14.70;99.90;;;;;;5097480;28;20075;-70
2022/06/06 03:32:08;;;;;;;5.72;2.28;;;14.60;99.90;;;;;;5064267;28;20098;-71
2022/06/06 03:34:39;;;;;;;6.53;2.25;;;14.60;99.90;;;;;;5108088;28;20469;-71
2022/06/06 03:37:07;;;;;;;7.15;2.75;;;14.60;99.90;;;;;;5098809;28;20055;-71
2022/06/06 03:40:04;;;;;;;4.63;2.40;;;14.60;99.90;;;;;;5098973;28;20480;-71
2022/06/06 03:42:44;;;;;;;4.63;2.80;;;14.70;99.90;;;;;;5099522;28;20134;-71
2022/06/06 03:45:47;;;;;;;3.65;2.20;;;14.70;99.90;;;;;;5114878;28;20423;-71
2022/06/06 03:48:46;;;;;;;3.90;2.13;;;14.70;99.90;;;;;;5078205;28;20075;-71
2022/06/06 03:51:22;;;;;;;3.53;1.98;;;14.70;99.90;;;;;;5078364;28;20079;-71
2022/06/06 03:54:28;;;;;;;3.65;2.15;;;14.70;99.90;;;;;;5096217;28;20056;-72
2022/06/06 03:57:13;;;;;;;4.47;2.00;;;14.70;99.90;;;;;;5078235;28;20456;-71
2022/06/06 03:59:40;;;;;;;3.67;1.95;;;14.70;99.90;;;;;;5095988;28;20101;-71
2022/06/06 04:02:07;;;;;;;3.50;1.77;;;14.70;99.90;;;;;;5078162;28;20472;-71
2022/06/06 04:04:34;;;;;;;3.53;1.85;;;14.70;99.90;;;;;;5073252;28;20365;-72
2022/06/06 04:07:02;;;;;;;3.20;1.77;;;14.70;99.90;;;;;;5075419;28;20055;-71
2022/06/06 04:09:29;;;;;;;2.90;1.60;;;14.70;99.90;;;;;;5058627;28;20048;-71
2022/06/06 04:12:18;;;;;;;6.07;2.58;;;14.70;99.90;;;;;;5040300;28;20480;-70
2022/06/06 04:14:55;;;;;;;3.20;1.80;;;14.70;99.90;;;;;;5075672;28;20075;-71
2022/06/06 04:17:44;;;;;;;4.35;2.00;;;14.70;99.90;;;;;;5058232;28;20048;-71
2022/06/06 04:20:42;;;;;;;3.15;2.13;;;14.70;99.90;;;;;;5057800;28;20516;-71
2022/06/06 04:23:23;;;;;;;5.65;2.80;;;14.70;99.90;;;;;;5014130;28;20064;-72
2022/06/06 04:26:19;;;;;;;4.25;2.45;;;14.70;99.90;;;;;;5058110;28;20135;-71
2022/06/06 04:29:07;;;;;;;5.78;2.63;;;14.70;99.90;;;;;;5075141;28;20515;-71
2022/06/06 04:31:45;;;;;;;5.65;2.47;;;14.70;99.90;;;;;;5057314;28;20048;-71
2022/06/06 04:34:13;;;;;;;5.10;2.92;;;14.60;99.90;;;;;;5059604;28;20084;-71
2022/06/06 04:36:48;;;;;;;6.25;2.88;;;14.70;99.90;;;;;;5077058;28;20061;-70
2022/06/06 04:39:29;;;;;;;4.60;2.67;;;14.60;99.90;;;;;;5077868;28;20106;-70
2022/06/06 04:42:03;;;;;;;4.93;2.70;;;14.60;99.90;;;;;;5077219;28;20040;-72
2022/06/06 04:44:41;;;;;;;5.07;2.55;;;14.60;99.90;;;;;;5095631;28;20040;-71
2022/06/06 04:47:15;;;;;;;6.68;2.83;;;14.60;99.90;;;;;;5077410;28;20052;-71
2022/06/06 04:49:42;;;;;;;4.13;2.03;;;14.60;99.90;;;;;;5068622;28;20067;-70
2022/06/06 04:52:09;;;;;;;6.63;2.95;;;14.50;99.90;;;;;;5072628;28;20078;-71
2022/06/06 04:54:40;;;;;;;5.45;2.53;;;14.40;99.90;;;;;;5067417;28;20123;-71
2022/06/06 04:57:07;;;;;;;6.03;2.45;;;14.50;99.90;;;;;;5077685;28;20112;-71
2022/06/06 04:59:35;;;;;;;5.45;2.83;;;14.50;99.90;;;;;;5079133;28;20144;-72
2022/06/06 05:02:02;;;;;;;5.78;2.88;;;14.50;99.90;;;;;;5107483;28;20032;-71
2022/06/06 05:04:29;;;;;;;5.32;2.35;;;14.50;99.90;;;;;;5106294;28;20046;-71
2022/06/06 05:07:16;;;;;;;4.60;2.55;;;14.50;99.90;;;;;;5076977;28;20448;-70
2022/06/06 05:10:00;;;;;;;7.53;3.90;;;14.50;99.90;;;;;;5112573;28;20048;-71
2022/06/06 05:12:40;;;;;;;6.30;2.90;;;14.50;99.90;;;;;;5085157;28;20056;-71
2022/06/06 05:15:29;;;;;;;8.20;3.50;;;14.50;99.90;;;;;;5077026;28;20056;-71
2022/06/06 05:18:10;;;;;;;10.52;3.92;;;14.50;99.90;;;;;;5095128;28;20181;-71
2022/06/06 05:21:00;;;;;;;9.93;4.07;;;14.50;99.90;;;;;;5084282;28;20040;-71
2022/06/06 05:23:35;;;;;;;6.85;3.50;;;14.50;99.90;;;;;;5097075;28;20509;-71
2022/06/06 05:26:03;;;;;;;8.43;4.43;;;14.50;99.90;;;;;;5097098;28;20131;-71
2022/06/06 05:28:31;;;;;;;6.65;3.55;;;14.50;99.90;;;;;;5112040;28;20051;-71
2022/06/06 05:31:05;;;;;;;7.65;4.03;;;14.50;99.90;;;;;;5077525;28;20434;-71
2022/06/06 05:33:33;;;;;;;9.23;4.28;;;14.50;99.90;;;;;;5094518;28;20044;-71
2022/06/06 05:36:22;;;;;;;8.60;3.90;;;14.50;99.90;;;;;;5092964;28;20414;-71
2022/06/06 05:38:55;;;;;;;7.18;4.35;;;14.50;99.90;;;;;;5095059;28;20125;-71
2022/06/06 05:41:31;;;;;;;9.87;4.40;;;14.50;99.90;;;;;;5077348;28;20056;-71
2022/06/06 05:44:26;;;;;;;9.93;4.95;;;14.50;99.90;;;;;;5077285;28;20052;-71
2022/06/06 05:47:04;;;;;;;7.50;4.10;;;14.40;99.90;;;;;;5079168;28;20051;-71
2022/06/06 05:49:47;;;;;;;9.23;4.28;;;14.40;99.90;;;;;;5077195;28;20153;-71
2022/06/06 05:53:07;;;;;;;9.20;5.17;;;14.40;99.90;;;;;;5077745;28;20131;-71
2022/06/06 05:55:52;;;;;;;11.30;6.20;;;14.40;99.90;;;;;;4980671;28;20137;-71
2022/06/06 05:58:40;;;;;;;8.02;4.45;;;14.40;99.90;;;;;;5021633;28;20058;-71
2022/06/06 06:01:23;;;;;;;10.65;5.90;;;14.40;99.90;;;;;;5050482;28;20342;-71
2022/06/06 06:03:52;;;;;;;;;;;14.40;99.90;;;;;;5061672;28;20113;-71
2022/06/06 06:06:40;;;;;;;13.73;6.85;;;14.30;99.90;;;;;;5060784;28;19920;-71
2022/06/06 06:09:24;;;;;;;10.60;5.30;;;14.30;99.90;;;;;;5078095;28;20049;-71
2022/06/06 06:12:20;;;;;;;14.88;6.93;;;14.30;99.90;;;;;;5060152;28;20051;-71
2022/06/06 06:15:03;;;;;;;14.77;6.30;;;14.40;99.90;;;;;;5059939;28;20052;-71
2022/06/06 06:17:31;;;;;;;12.95;7.15;;;14.40;99.90;;;;;;5060248;28;20070;-71
2022/06/06 06:20:12;;;;;;;14.27;7.03;;;14.40;99.90;;;;;;5059538;28;20059;-71
2022/06/06 06:22:56;;;;;;;16.00;7.45;;;14.40;99.90;;;;;;5060246;28;20044;-71
2022/06/06 06:25:24;;;;;;;14.85;7.78;;;14.40;99.90;;;;;;5087780;28;20460;-70
2022/06/06 06:27:57;;;;;;;13.55;7.53;;;14.40;99.90;;;;;;5094887;28;20048;-70
2022/06/06 06:30:26;;;;;;;16.80;7.00;;;14.30;99.90;;;;;;5068461;28;20048;-70
2022/06/06 06:33:06;;;;;;;12.27;7.07;;;14.40;99.90;;;;;;5076241;28;20106;-71
2022/06/06 06:35:55;;;;;;;11.35;5.75;;;14.40;99.90;;;;;;5077083;28;20044;-71
2022/06/06 06:38:34;;;;;;;9.98;5.38;;;14.40;99.90;;;;;;5045645;28;20155;-70
2022/06/06 06:41:05;;;;;;;13.00;6.65;;;14.40;99.90;;;;;;5095869;28;20043;-71
2022/06/06 06:43:44;;;;;;;11.45;5.85;;;14.50;99.90;;;;;;5099601;28;20116;-71
2022/06/06 06:46:26;;;;;;;9.10;4.97;;;14.50;99.90;;;;;;5099464;28;20054;-70
2022/06/06 06:49:03;;;;;;;11.40;5.50;;;14.50;99.90;;;;;;5082490;28;20040;-70
2022/06/06 06:51:57;;;;;;;16.50;5.22;;;14.50;99.90;;;;;;5059164;28;20512;-70
2022/06/06 06:54:41;;;;;;;8.80;4.57;;;14.60;99.90;;;;;;5059300;28;20040;-70
2022/06/06 06:57:14;;;;;;;10.65;4.95;;;14.60;99.90;;;;;;5059650;28;20491;-70
2022/06/06 06:59:51;;;;;;;9.02;4.40;;;14.60;99.90;;;;;;5076358;28;20053;-70
2022/06/06 07:08:35;;;;;;;10.07;3.95;;;14.80;99.90;;;;;;5075059;28;20128;-70
2022/06/06 07:11:16;;;;;;;8.55;4.13;;;14.80;99.90;;;;;;5058770;28;20488;-71
2022/06/06 07:14:09;;;;;;;14.35;4.00;;;14.80;99.90;;;;;;5058978;28;20506;-71
2022/06/06 07:16:37;;;;;;;9.07;4.13;;;14.90;99.90;;;;;;5059122;28;20139;-71
2022/06/06 07:19:13;;;;;;;7.35;4.07;;;15.10;99.90;;;;;;5076535;28;20047;-70
2022/06/06 07:21:41;;;;;;;11.15;3.65;;;15.30;99.90;;;;;;5076378;28;20079;-70
2022/06/06 07:24:15;;;;;;;7.45;3.35;;;15.50;99.90;;;;;;5076052;28;20452;-71
2022/06/06 07:26:42;;;;;;;;;;;15.80;99.90;;;;;;5059007;28;20053;-71
2022/06/06 07:29:13;;;;;;;7.80;3.72;;;16.00;99.90;;;;;;5059146;28;19990;-70
2022/06/06 07:31:57;;;;;;;9.07;3.25;;;16.20;99.90;;;;;;5061293;28;20338;-71
2022/06/06 07:34:41;;;;;;;6.30;3.88;;;16.20;99.90;;;;;;5076616;28;20048;-71
2022/06/06 07:37:26;;;;;;;4.70;2.70;;;16.20;99.90;;;;;;5058489;28;20419;-72
2022/06/06 07:40:17;;;;;;;6.18;3.10;;;16.30;99.90;;;;;;5076574;28;20044;-70
2022/06/06 07:42:53;;;;;;;5.38;2.40;;;16.60;99.90;;;;;;5058612;28;20041;-71
2022/06/06 07:45:30;;;;;;;4.18;2.35;;;17.20;99.90;;;;;;5061136;28;20135;-72
2022/06/06 07:48:15;;;;;;;4.70;2.20;;;17.70;99.90;;;;;;5055200;28;20064;-71
2022/06/06 07:51:07;;;;;;;5.72;2.53;;;17.80;99.90;;;;;;5109347;28;20366;-70
2022/06/06 07:53:47;;;;;;;5.60;2.20;;;17.60;99.90;;;;;;5094453;28;20056;-71
2022/06/06 07:56:18;;;;;;;3.78;1.77;;;17.50;99.90;;;;;;5103555;28;20052;-70
2022/06/06 07:59:19;;;;;;;6.85;2.40;;;17.40;99.90;;;;;;5093949;28;20052;-70
2022/06/06 08:02:21;;;;;;;7.57;2.15;;;17.70;99.90;;;;;;5088676;28;20407;-71
2022/06/06 08:05:13;;;;;;;3.95;2.13;;;18.10;99.90;;;;;;5089564;28;20044;-74
2022/06/06 08:08:02;;;;;;;3.55;1.83;;;18.00;99.90;;;;;;5096809;28;20119;-71
2022/06/06 08:10:47;;;;;;;7.93;2.40;;;18.70;99.90;;;;;;5094904;28;20059;-73
2022/06/06 08:13:30;;;;;;;5.00;2.75;;;19.80;99.90;;;;;;5070176;28;20101;-71
2022/06/06 08:16:11;;;;;;;3.92;1.92;;;20.80;99.90;;;;;;5074667;28;20056;-71
2022/06/06 08:18:43;;;;;;;4.72;2.70;;;20.90;99.90;;;;;;5041566;28;20441;-71
2022/06/06 08:21:35;;;;;;;3.47;2.03;;;20.90;99.90;;;;;;5057629;28;20071;-71
2022/06/06 08:24:05;;;;;;;3.50;2.00;;;20.50;99.90;;;;;;5057555;28;20048;-71
2022/06/06 08:26:37;;;;;;;6.65;2.42;;;20.10;99.90;;;;;;5057954;28;20067;-71
2022/06/06 08:29:05;;;;;;;3.97;2.30;;;19.50;99.90;;;;;;5070946;28;20047;-71
2022/06/06 08:31:31;;;;;;;6.43;2.35;;;19.20;99.90;;;;;;5095399;28;20070;-71
2022/06/06 08:33:57;;;;;;;4.65;2.38;;;19.60;99.90;;;;;;5060810;28;20048;-72
2022/06/06 08:36:43;;;;;;;5.53;2.28;;;20.40;99.90;;;;;;5077699;28;20035;-71
2022/06/06 08:39:26;;;;;;;4.00;2.15;;;20.70;99.90;;;;;;5095596;28;20144;-71
2022/06/06 08:42:01;;;;;;;8.73;2.53;;;20.70;99.90;;;;;;5077200;28;20047;-71
2022/06/06 08:45:03;;;;;;;5.63;2.45;;;21.30;99.90;;;;;;5073487;28;20105;-71
2022/06/06 08:47:31;;;;;;;4.78;2.30;;;21.30;99.90;;;;;;5057569;28;20063;-71
2022/06/06 08:53:17;;;;;;;3.92;1.80;;;20.60;99.90;;;;;;5057115;28;20053;-71
2022/06/06 08:55:51;;;;;;;6.18;1.90;;;20.90;99.90;;;;;;5057220;28;20052;-71
2022/06/06 08:58:46;;;;;;;3.47;1.50;;;21.30;99.90;;;;;;5074683;28;20045;-71
2022/06/06 09:01:44;;;;;;;3.70;1.63;;;21.10;99.90;;;;;;5057069;28;20533;-71
2022/06/06 09:04:34;;;;;;;3.45;1.55;;;21.30;99.90;;;;;;5074931;28;20063;-72
2022/06/06 09:07:18;;;;;;;4.97;1.90;;;21.80;99.90;;;;;;5057080;28;20055;-71
2022/06/06 09:10:15;;;;;;;5.88;2.03;;;21.90;99.90;;;;;;5057377;28;20040;-71
2022/06/06 09:13:21;;;;;;;3.90;1.75;;;22.60;99.90;;;;;;5064728;28;20059;-71
2022/06/06 09:16:14;;;;;;;6.32;2.10;;;22.10;99.90;;;;;;5057194;28;20246;-71
2022/06/06 09:19:07;;;;;;;3.45;1.35;;;22.00;99.90;;;;;;5057458;28;20041;-71
2022/06/06 09:21:39;;;;;;;3.33;1.60;;;21.70;99.90;;;;;;5076525;28;20444;-71
2022/06/06 09:24:36;;;;;;;3.85;1.00;;;21.60;99.90;;;;;;5079062;28;20353;-71
2022/06/06 09:27:30;;;;;;;2.25;1.10;;;21.70;99.90;;;;;;5043763;28;20067;-71
2022/06/06 09:30:01;;;;;;;2.10;1.27;;;21.80;99.90;;;;;;5095170;28;20054;-71
2022/06/06 09:32:57;;;;;;;4.90;1.20;;;22.00;99.90;;;;;;5101489;28;20051;-70
2022/06/06 09:35:38;;;;;;;2.65;1.10;;;22.10;99.90;;;;;;5103126;28;20080;-71
2022/06/06 09:38:14;;;;;;;3.00;1.00;;;22.00;99.90;;;;;;5077508;28;20060;-71
2022/06/06 09:41:05;;;;;;;4.10;1.23;;;22.10;99.90;;;;;;5068205;28;20044;-71
2022/06/06 09:43:44;;;;;;;3.35;0.98;;;21.90;99.90;;;;;;5107023;28;20058;-70
2022/06/06 09:46:29;;;;;;;6.60;1.42;;;21.50;99.90;;;;;;5079406;28;20036;-70
2022/06/06 09:49:23;;;;;;;1.65;0.88;;;20.90;99.90;;;;;;5078080;28;20044;-70
2022/06/06 09:52:26;;;;;;;4.68;1.35;;;20.60;99.90;;;;;;5060541;28;20064;-72
2022/06/06 09:59:03;;;;;;;4.47;1.40;;;20.40;99.90;;;;;;5079961;28;20127;-69
2022/06/06 10:01:46;;;;;;;5.70;1.42;;;20.00;99.90;;;;;;5077224;28;20055;-70
2022/06/06 10:04:33;;;;;;;1.90;1.00;;;19.70;99.90;;;;;;5077443;28;20048;-70
2022/06/06 10:07:24;;;;;;;2.05;1.25;;;19.30;99.90;;;;;;5059572;28;20060;-71
2022/06/06 10:10:19;;;;;;;3.45;1.58;;;19.40;99.90;;;;;;5087731;28;20066;-70
2022/06/06 10:13:07;;;;;;;3.58;1.35;;;19.30;99.90;;;;;;5079862;28;20180;-70
2022/06/06 10:15:47;;;;;;;3.28;1.25;;;19.30;99.90;;;;;;5079900;28;20456;-69
2022/06/06 10:18:38;;;;;;;2.47;1.27;;;19.30;99.90;;;;;;5070682;28;20060;-70
2022/06/06 10:21:24;;;;;;;3.15;1.40;;;19.50;99.90;;;;;;5097394;28;20115;-71
2022/06/06 10:24:17;;;;;;;3.78;1.25;;;19.50;99.90;;;;;;5076211;28;20069;-70
2022/06/06 10:27:12;;;;;;;4.32;1.13;;;19.60;99.90;;;;;;5076861;28;20037;-71
2022/06/06 10:30:12;;;;;;;2.97;1.08;;;19.90;99.90;;;;;;5059439;28;20037;-71
2022/06/06 10:32:41;;;;;;;2.38;1.15;;;20.30;99.90;;;;;;5058297;28;20040;-71
2022/06/06 10:35:19;;;;;;;2.97;1.17;;;20.80;99.90;;;;;;5063365;28;20039;-70
2022/06/06 10:38:06;;;;;;;10.85;2.05;;;20.40;99.90;;;;;;5079426;28;20371;-71
2022/06/06 10:40:43;;;;;;;4.38;1.33;;;19.70;99.90;;;;;;5079546;28;20039;-71
2022/06/06 10:43:21;;;;;;;5.45;0.93;;;19.30;99.90;;;;;;5061420;28;20101;-71
2022/06/06 10:46:08;;;;;;;1.90;0.93;;;18.90;99.90;;;;;;5079388;28;20425;-71
2022/06/06 10:48:59;;;;;;;1.42;0.85;;;18.50;99.90;;;;;;5095734;28;20044;-70
2022/06/06 10:51:40;;;;;;;6.22;1.35;;;18.10;99.90;;;;;;5065150;28;20079;-70
2022/06/06 10:54:32;;;;;;;4.18;1.58;;;18.10;99.90;;;;;;5064167;28;20068;-71
2022/06/06 10:57:18;;;;;;;2.83;1.13;;;18.10;99.90;;;;;;5074821;28;20074;-71
2022/06/06 11:00:13;;;;;;;2.45;1.10;;;18.40;99.90;;;;;;5098071;28;20040;-71
2022/06/06 11:03:06;;;;;;;3.92;1.48;;;18.90;99.90;;;;;;5079202;28;20143;-71
2022/06/06 11:05:41;;;;;;;3.35;1.50;;;19.50;99.90;;;;;;5096329;28;20450;-71
2022/06/06 11:08:30;;;;;;;3.00;1.23;;;20.00;99.90;;;;;;5096685;28;20520;-71
2022/06/06 11:11:23;;;;;;;1.67;1.00;;;20.60;99.90;;;;;;5092521;28;20048;-70
2022/06/06 11:13:59;;;;;;;2.87;1.33;;;20.70;99.90;;;;;;5076883;28;20080;-72
2022/06/06 11:17:12;;;;;;;3.78;1.10;;;20.80;99.90;;;;;;5058878;28;20330;-71
2022/06/06 11:19:57;;;;;;;2.45;1.08;;;20.80;99.90;;;;;;5076706;28;20048;-72
2022/06/06 11:22:26;;;;;;;2.90;1.10;;;21.20;99.90;;;;;;5087745;28;20131;-73
2022/06/06 11:25:16;;;;;;;4.82;1.00;;;21.50;99.90;;;;;;5085769;28;20127;-71
2022/06/06 11:27:54;;;;;;;2.72;0.93;;;21.50;99.90;;;;;;5106654;28;20040;-71
2022/06/06 11:30:44;;;;;;;3.80;1.10;;;21.60;99.90;;;;;;5096547;28;20044;-71
2022/06/06 11:33:30;;;;;;;2.53;1.02;;;21.60;99.90;;;;;;5062583;28;20106;-71
2022/06/06 11:36:33;;;;;;;7.72;1.50;;;21.10;99.90;;;;;;5079151;28;20044;-71
2022/06/06 11:39:27;;;;;;;2.40;1.08;;;21.10;99.90;;;;;;5074069;28;20053;-71
2022/06/06 11:41:55;;;;;;;;;;;21.00;99.90;;;;;;5058542;28;20110;-71
2022/06/06 11:44:45;;;;;;;4.10;1.17;;;20.80;99.90;;;;;;5059014;28;19924;-71
2022/06/06 11:47:22;;;;;;;5.35;1.35;;;20.40;99.90;;;;;;5092156;28;20048;-71
2022/06/06 11:50:11;;;;;;;3.17;1.20;;;20.20;99.90;;;;;;5094597;28;20360;-71
2022/06/06 11:53:17;;;;;;;4.78;1.33;;;20.00;99.90;;;;;;5067413;28;20178;-70
2022/06/06 11:55:53;;;;;;;3.45;1.45;;;19.60;99.90;;;;;;5018404;28;20060;-70
2022/06/06 11:58:48;;;;;;;2.22;1.13;;;19.70;99.90;;;;;;5058541;28;20044;-70
2022/06/06 12:01:32;;;;;;;1.80;1.00;;;19.90;99.90;;;;;;5058117;28;20449;-70
2022/06/06 12:04:07;;;;;;;1.40;0.90;;;20.30;99.90;;;;;;5072285;28;20056;-71
2022/06/06 12:06:59;;;;;;;4.63;1.20;;;20.70;99.90;;;;;;5067232;28;20044;-70
2022/06/06 12:09:43;;;;;;;1.90;1.00;;;20.80;99.90;;;;;;5051429;28;20040;-71
2022/06/06 12:12:40;;;;;;;1.20;0.90;;;21.00;99.90;;;;;;5056338;28;20154;-71
2022/06/06 12:15:36;;;;;;;1.63;1.13;;;20.80;99.90;;;;;;5091600;28;20036;-71
2022/06/06 12:18:20;;;;;;;5.45;1.45;;;20.80;99.90;;;;;;5077019;28;20123;-71
2022/06/06 12:21:04;;;;;;;4.28;1.48;;;20.60;99.90;;;;;;5094814;28;20377;-70
2022/06/06 12:23:33;;;;;;;4.95;1.00;;;20.50;99.90;;;;;;5067051;28;20504;-70
2022/06/06 12:26:17;;;;;;;4.10;1.00;;;20.20;99.90;;;;;;5066470;28;20058;-71
2022/06/06 12:29:09;;;;;;;1.70;1.15;;;20.20;99.90;;;;;;5094554;28;20412;-71
2022/06/06 12:32:05;;;;;;;4.40;1.25;;;20.50;99.90;;;;;;5072552;28;20040;-71
2022/06/06 12:34:43;;;;;;;3.67;1.42;;;20.90;99.90;;;;;;5071519;28;20082;-71
2022/06/06 12:37:11;;;;;;;3.05;1.05;;;21.20;99.90;;;;;;5063045;28;20048;-71
2022/06/06 12:39:49;;;;;;;1.10;0.70;;;21.60;99.90;;;;;;5074078;28;20044;-71
2022/06/06 12:42:52;;;;;;;1.42;0.75;;;21.70;99.90;;;;;;5083377;28;20044;-71
2022/06/06 12:45:38;;;;;;;6.15;1.08;;;21.60;99.90;;;;;;5075673;28;20846;-71
2022/06/06 12:48:13;;;;;;;1.25;0.73;;;21.30;99.90;;;;;;5056042;28;20048;-71
2022/06/06 12:51:01;;;;;;;0.80;0.70;;;21.20;99.90;;;;;;5054794;28;20059;-70
2022/06/06 12:54:01;;;;;;;0.82;0.75;;;21.10;99.90;;;;;;5083479;28;20476;-68
2022/06/06 12:56:27;;;;;;;3.88;0.90;;;20.90;99.90;;;;;;5085789;28;20045;-69
2022/06/06 12:59:12;;;;;;;1.90;0.70;;;20.90;99.90;;;;;;5071814;28;20135;-66
2022/06/06 13:02:02;;;;;;;3.50;0.90;;;20.60;99.90;;;;;;5072492;28;20044;-68
2022/06/06 13:04:41;;;;;;;1.65;0.80;;;20.60;99.90;;;;;;5073718;28;20526;-68
2022/06/06 13:07:22;;;;;;;3.00;1.63;;;20.50;99.90;;;;;;5065776;28;20472;-69
2022/06/06 13:10:08;;;;;;;4.25;1.25;;;20.40;99.90;;;;;;5073162;28;20055;-67
2022/06/06 13:12:55;;;;;;;2.13;0.90;;;20.10;99.90;;;;;;5069378;28;20063;-68
2022/06/06 13:15:32;;;;;;;3.67;1.42;;;19.80;99.90;;;;;;5063286;28;20048;-67
2022/06/06 13:18:13;;;;;;;8.32;1.55;;;19.50;99.90;;;;;;5073398;28;20145;-67
2022/06/06 13:21:03;;;;;;;3.05;1.10;;;19.20;99.90;;;;;;5087721;28;20480;-68
2022/06/06 13:24:02;;;;;;;3.60;1.20;;;19.00;99.90;;;;;;5087226;28;20056;-70
2022/06/06 13:27:08;;;;;;;2.80;1.55;;;18.80;99.90;;;;;;5059399;28;20067;-68
2022/06/06 13:29:36;;;;;;;3.60;1.58;;;18.90;99.90;;;;;;5038325;28;20048;-68
2022/06/06 13:32:20;;;;;;;2.40;1.17;;;18.90;99.90;;;;;;5073043;28;20068;-67
2022/06/06 13:35:16;;;;;;;5.07;1.38;;;18.90;99.90;;;;;;5055594;28;20056;-68
2022/06/06 13:37:44;;;;;;;1.73;0.90;;;18.70;99.90;;;;;;5057106;28;20058;-67
2022/06/06 13:40:44;;;;;;;2.15;1.20;;;18.60;99.90;;;;;;5060825;28;20049;-67
2022/06/06 13:43:18;;;;;;;1.90;1.20;;;18.40;99.90;;;;;;5055487;28;20052;-68
2022/06/06 13:46:15;;;;;;;3.50;1.30;;;18.20;99.90;;;;;;5079034;28;20126;-69
2022/06/06 13:48:50;;;;;;;3.70;1.30;;;18.10;99.90;;;;;;5059209;28;20431;-69
2022/06/06 13:51:47;;;;;;;2.60;1.30;;;18.10;99.90;;;;;;5072285;28;20048;-68
2022/06/06 13:54:29;;;;;;;2.05;1.10;;;18.10;99.90;;;;;;5075371;28;20186;-68
2022/06/06 13:57:20;;;;;;;4.67;1.80;;;18.00;99.90;;;;;;5073496;28;20063;-68
2022/06/06 14:00:02;;;;;;;3.30;1.20;;;17.70;99.90;;;;;;5064230;28;20291;-68
2022/06/06 14:02:49;;;;;;;3.65;1.10;;;17.50;99.90;;;;;;5073349;28;20115;-68
2022/06/06 14:05:44;;;;;;;3.03;1.30;;;17.30;99.90;;;;;;5056066;28;20041;-69
2022/06/06 14:08:15;;;;;;;5.85;1.48;;;17.20;99.90;;;;;;5086444;28;20353;-68
2022/06/06 14:10:53;;;;;;;3.22;1.58;;;17.10;99.90;;;;;;5059740;28;20106;-68